Time;durP1;ratioP1;P1;durP2;ratioP2;P2;SDS_P1;SDS_P2;PMS_P1;PMS_P2;Temp;Humidity;BMP_temperature;BMP_pressure;BME280_temperature;BME280_humidity;BME280_pressure;Samples;Min_cycle;Max_cycle;Signal;HPM_P1;HPM_P2
2021/12/19 00:10:09;;;;;;;18.33;5.27;;;;;;;18.50;50.72;102101.72;5032115;28;20457;-74
2021/12/19 00:12:34;;;;;;;17.37;4.90;;;;;;;18.53;50.29;102106.75;5029577;28;20431;-75
2021/12/19 00:15:00;;;;;;;14.27;5.50;;;;;;;18.49;50.86;102105.75;5030972;28;20175;-74
2021/12/19 00:17:25;;;;;;;17.80;5.43;;;;;;;18.47;50.94;102107.28;5031375;28;20192;-74
2021/12/19 00:19:51;;;;;;;19.33;5.63;;;;;;;18.51;51.07;102108.28;5033163;28;20547;-74
2021/12/19 00:22:16;;;;;;;15.23;5.40;;;;;;;18.47;50.90;102099.50;5038851;28;20172;-73
2021/12/19 00:24:42;;;;;;;13.83;5.00;;;;;;;18.50;50.75;102101.72;5031937;28;20188;-74
2021/12/19 00:27:07;;;;;;;16.17;5.47;;;;;;;18.49;50.78;102094.31;5049972;28;20179;-76
2021/12/19 00:29:33;;;;;;;25.87;5.57;;;;;;;18.49;50.80;102096.31;5032356;28;20179;-74
2021/12/19 00:32:32;;;;;;;21.20;5.07;;;;;;;18.49;51.00;102097.16;5032298;28;20194;-75
2021/12/19 00:34:57;;;;;;;17.93;5.13;;;;;;;18.53;50.56;102095.31;5050809;28;20184;-74
2021/12/19 00:37:23;;;;;;;16.40;5.23;;;;;;;18.54;50.72;102094.13;5029692;28;21006;-73
2021/12/19 00:39:48;;;;;;;15.10;4.87;;;;;;;18.50;50.95;102095.13;5042346;28;20658;-73
2021/12/19 00:42:40;;;;;;;15.30;4.77;;;;;;;18.49;50.79;102091.47;5037332;28;20184;-73
2021/12/19 00:45:16;;;;;;;15.50;5.50;;;;;;;18.50;50.92;102096.00;5047439;28;20683;-74
2021/12/19 00:47:44;;;;;;;14.87;5.30;;;;;;;18.50;50.62;102089.41;5022004;28;20438;-74
2021/12/19 00:50:10;;;;;;;23.23;4.70;;;;;;;18.55;50.53;102089.25;4999397;28;20517;-74
2021/12/19 00:52:36;;;;;;;15.70;5.17;;;;;;;18.52;50.81;102081.34;5031923;28;21057;-74
2021/12/19 00:55:01;;;;;;;18.17;5.90;;;;;;;18.48;50.80;102078.34;5034046;28;20323;-74
2021/12/19 00:57:26;;;;;;;18.73;5.60;;;;;;;18.43;51.10;102081.38;5011545;28;20172;-74
2021/12/19 00:59:52;;;;;;;13.03;4.23;;;;;;;18.45;51.32;102081.84;4996457;28;20184;-73
2021/12/19 01:02:17;;;;;;;23.67;5.67;;;;;;;18.48;50.88;102081.19;5031440;28;20187;-74
2021/12/19 01:04:43;;;;;;;17.20;4.87;;;;;;;18.44;50.79;102071.59;5013276;28;20204;-73
2021/12/19 01:07:08;;;;;;;19.30;5.30;;;;;;;18.49;51.03;102077.16;5031065;28;20239;-75
2021/12/19 01:09:34;;;;;;;14.90;4.40;;;;;;;18.47;50.78;102068.06;5032453;28;20183;-74
2021/12/19 01:12:00;;;;;;;18.60;6.30;;;;;;;18.47;50.84;102075.81;5028879;28;20192;-73
2021/12/19 01:14:26;;;;;;;13.60;4.87;;;;;;;18.49;51.24;102073.44;5042302;28;20466;-75
2021/12/19 01:16:51;;;;;;;13.80;4.60;;;;;;;18.46;51.33;102074.13;5032188;28;20209;-75
2021/12/19 01:19:17;;;;;;;12.50;4.23;;;;;;;18.50;50.37;102061.66;5044990;28;20191;-75
2021/12/19 01:21:42;;;;;;;22.00;5.20;;;;;;;18.49;50.88;102067.72;5019582;28;20184;-74
2021/12/19 01:24:08;;;;;;;12.43;4.43;;;;;;;18.54;50.97;102058.97;5031300;28;20585;-73
2021/12/19 01:26:34;;;;;;;12.10;5.00;;;;;;;18.47;50.82;102062.34;5048911;28;20651;-73
2021/12/19 01:28:59;;;;;;;14.00;5.20;;;;;;;18.49;51.22;102060.00;5047242;28;20418;-75
2021/12/19 01:31:24;;;;;;;11.77;4.67;;;;;;;18.47;50.62;102050.88;5048527;28;20172;-75
2021/12/19 01:33:50;;;;;;;15.33;4.23;;;;;;;18.46;50.83;102060.66;5023489;28;20185;-74
2021/12/19 01:36:16;;;;;;;15.53;5.07;;;;;;;18.49;50.92;102047.69;5033967;28;20180;-73
2021/12/19 01:38:41;;;;;;;14.00;4.60;;;;;;;18.50;50.79;102053.09;5009166;28;20195;-74
2021/12/19 01:41:06;;;;;;;21.20;5.57;;;;;;;18.48;50.79;102052.59;5037352;28;20553;-74
2021/12/19 01:43:32;;;;;;;13.40;4.53;;;;;;;18.45;51.02;102053.25;5027189;28;21037;-74
2021/12/19 01:45:57;;;;;;;14.00;4.47;;;;;;;18.46;51.29;102054.13;5027872;28;20176;-74
2021/12/19 01:48:23;;;;;;;11.80;4.43;;;;;;;18.44;50.86;102057.31;5044598;28;20512;-73
2021/12/19 01:50:49;;;;;;;14.43;4.70;;;;;;;18.47;51.03;102050.88;5030149;28;20674;-73
2021/12/19 01:53:14;;;;;;;14.50;4.30;;;;;;;18.43;51.34;102049.91;5047599;28;20225;-76
2021/12/19 01:55:41;;;;;;;16.13;5.10;;;;;;;18.46;50.97;102048.41;5004622;28;20189;-74
2021/12/19 01:58:07;;;;;;;17.97;4.93;;;;;;;18.45;51.15;102046.69;5030431;28;20187;-75
2021/12/19 02:00:35;;;;;;;12.20;4.50;;;;;;;18.46;50.82;102046.34;5012212;28;20968;-73
2021/12/19 02:03:02;;;;;;;13.77;3.97;;;;;;;18.47;51.01;102048.03;5030969;28;20209;-75
2021/12/19 02:05:28;;;;;;;11.17;4.17;;;;;;;18.45;51.73;102044.69;5014065;28;21125;-75
2021/12/19 02:07:54;;;;;;;11.27;4.50;;;;;;;18.45;51.13;102041.81;5004566;28;20447;-74
2021/12/19 02:10:21;;;;;;;14.30;3.67;;;;;;;18.46;51.15;102049.22;5013871;28;20191;-74
2021/12/19 02:12:47;;;;;;;9.90;4.13;;;;;;;18.42;51.15;102039.63;5010417;28;20427;-73
2021/12/19 02:15:19;;;;;;;11.50;4.10;;;;;;;18.45;50.99;102040.97;5046970;28;20492;-76
2021/12/19 02:17:45;;;;;;;16.30;4.03;;;;;;;18.46;51.29;102049.22;5030914;28;20425;-74
2021/12/19 02:20:12;;;;;;;13.60;3.80;;;;;;;18.45;51.33;102047.53;5029454;28;20439;-75
2021/12/19 02:22:37;;;;;;;13.27;4.77;;;;;;;18.42;51.27;102048.22;5021435;28;20214;-74
2021/12/19 02:25:03;;;;;;;12.27;4.60;;;;;;;18.43;51.29;102049.06;5014497;28;20482;-73
2021/12/19 02:27:28;;;;;;;14.97;4.03;;;;;;;18.37;51.40;102051.25;5030204;28;20195;-74
2021/12/19 02:29:55;;;;;;;9.90;4.00;;;;;;;18.40;51.48;102050.56;5015212;28;20186;-74
2021/12/19 02:32:21;;;;;;;9.33;4.30;;;;;;;18.40;51.32;102049.72;5037509;28;20229;-73
2021/12/19 02:34:49;;;;;;;8.90;3.20;;;;;;;18.36;51.53;102055.28;5013535;28;20418;-73
2021/12/19 02:37:48;;;;;;;13.50;4.43;;;;;;;18.41;51.58;102046.53;5027242;28;20190;-74
2021/12/19 02:48:13;;;;;;;10.60;3.60;;;;;;;18.48;50.95;102035.44;5042574;28;20818;-74
2021/12/19 02:50:47;;;;;;;12.30;4.00;;;;;;;18.40;51.66;102030.56;5015724;28;20434;-73
2021/12/19 02:53:12;;;;;;;11.80;4.70;;;;;;;18.41;50.99;102040.81;5046586;28;20441;-74
2021/12/19 02:55:39;;;;;;;11.47;4.17;;;;;;;18.41;51.15;102040.00;5001797;28;20436;-74
2021/12/19 02:58:04;;;;;;;8.10;3.40;;;;;;;18.44;51.18;102040.16;5010616;28;20731;-74
2021/12/19 03:00:30;;;;;;;10.40;3.80;;;;;;;18.42;51.17;102025.31;5011216;28;20449;-74
2021/12/19 03:02:55;;;;;;;13.70;4.80;;;;;;;18.43;51.17;102024.16;5023811;28;20176;-75
2021/12/19 03:05:21;;;;;;;12.17;3.80;;;;;;;18.39;51.34;102030.88;5029227;28;20261;-74
2021/12/19 03:07:49;;;;;;;8.13;4.03;;;;;;;18.43;51.06;102024.16;5028193;28;20219;-74
2021/12/19 03:13:19;;;;;;;7.40;3.33;;;;;;;18.43;51.50;102009.88;5048872;28;20791;-75
2021/12/19 03:18:29;;;;;;;8.30;4.37;;;;;;;18.44;51.06;102023.00;5033667;28;20468;-74
2021/12/19 03:20:54;;;;;;;9.93;3.90;;;;;;;18.42;51.13;102019.59;5050798;28;20418;-74
2021/12/19 03:23:20;;;;;;;7.93;3.50;;;;;;;18.44;51.45;102017.28;5028622;28;20184;-73
2021/12/19 03:25:45;;;;;;;10.90;4.00;;;;;;;18.38;51.54;102018.63;5029078;28;20171;-74
2021/12/19 03:28:12;;;;;;;7.57;3.47;;;;;;;18.40;51.33;102013.41;5033132;28;20175;-74
2021/12/19 03:30:38;;;;;;;9.50;3.60;;;;;;;18.37;51.20;102022.63;5032015;28;20190;-75
2021/12/19 03:33:03;;;;;;;12.43;3.90;;;;;;;18.39;51.46;102014.59;5032571;28;20442;-74
2021/12/19 03:35:30;;;;;;;10.30;4.77;;;;;;;18.37;51.49;102011.19;5032992;28;20168;-75
2021/12/19 03:37:56;;;;;;;8.17;3.20;;;;;;;18.43;50.90;102018.47;5014141;28;20188;-74
2021/12/19 03:40:35;;;;;;;10.20;4.20;;;;;;;18.43;51.25;102015.59;5015902;28;20434;-73
2021/12/19 03:43:00;;;;;;;10.47;3.60;;;;;;;18.44;51.33;101999.25;5026121;28;20442;-74
2021/12/19 03:45:26;;;;;;;10.77;4.37;;;;;;;18.42;51.38;102005.31;5033793;28;20876;-73
2021/12/19 03:47:51;;;;;;;10.27;3.40;;;;;;;18.42;51.75;101995.91;5050052;28;20201;-75
2021/12/19 03:50:20;;;;;;;11.17;3.40;;;;;;;18.43;51.30;101997.59;5031898;28;20182;-75
2021/12/19 03:52:46;;;;;;;6.57;3.33;;;;;;;18.38;51.30;101998.63;5041567;28;20246;-75
2021/12/19 03:55:11;;;;;;;8.90;3.80;;;;;;;18.37;51.83;101996.91;5032051;28;20418;-73
2021/12/19 03:57:37;;;;;;;14.30;3.93;;;;;;;18.39;51.21;101988.00;5033102;28;20639;-74
2021/12/19 04:00:05;;;;;;;10.90;3.90;;;;;;;18.38;51.78;101995.75;5032674;28;20801;-77
2021/12/19 04:02:30;;;;;;;10.17;3.67;;;;;;;18.39;51.90;101986.00;5029159;28;20202;-75
2021/12/19 04:04:57;;;;;;;10.40;3.50;;;;;;;18.35;51.96;101984.13;5048799;28;20786;-74
2021/12/19 04:07:23;;;;;;;11.50;3.50;;;;;;;18.38;51.69;101992.03;5046998;28;20547;-75
2021/12/19 04:09:49;;;;;;;10.83;4.07;;;;;;;18.38;51.50;101987.19;5032380;28;20506;-74
2021/12/19 04:12:15;;;;;;;9.77;3.40;;;;;;;18.38;51.53;101978.59;5049009;28;20410;-74
2021/12/19 04:14:40;;;;;;;7.13;2.90;;;;;;;18.41;51.27;101982.78;5045640;28;20523;-75
2021/12/19 04:17:06;;;;;;;9.87;3.80;;;;;;;18.41;51.56;101985.66;5033584;28;20448;-76
2021/12/19 04:19:32;;;;;;;6.60;3.40;;;;;;;18.43;51.33;101983.28;5030951;28;20188;-74
2021/12/19 04:21:58;;;;;;;10.27;3.87;;;;;;;18.41;51.19;101977.06;5045217;28;20188;-74
2021/12/19 04:24:23;;;;;;;7.60;3.10;;;;;;;18.39;51.67;101986.00;5028642;28;20212;-74
2021/12/19 04:26:49;;;;;;;8.17;3.50;;;;;;;18.39;51.48;101982.28;5047046;28;20441;-73
2021/12/19 04:29:14;;;;;;;8.10;3.33;;;;;;;18.39;51.46;101983.13;5049026;28;20819;-75
2021/12/19 04:31:40;;;;;;;6.73;3.33;;;;;;;18.43;51.30;101971.84;5033522;28;20176;-75
2021/12/19 04:34:05;;;;;;;10.03;3.93;;;;;;;18.38;51.54;101975.75;5031637;28;20278;-75
2021/12/19 04:36:36;;;;;;;6.47;3.40;;;;;;;18.43;51.45;101969.84;5021119;28;20176;-73
2021/12/19 04:44:31;;;;;;;9.50;3.80;;;;;;;18.39;51.41;101965.97;5032397;28;20833;-74
2021/12/19 04:51:03;;;;;;;11.80;3.80;;;;;;;18.41;51.31;101949.31;5043086;28;20540;-74
2021/12/19 05:00:29;;;;;;;6.90;3.37;;;;;;;18.36;51.40;101946.63;5046522;28;20496;-74
2021/12/19 05:03:00;;;;;;;9.27;3.47;;;;;;;18.38;51.67;101949.16;5048082;28;20649;-74
2021/12/19 05:16:07;;;;;;;5.63;2.70;;;;;;;18.41;51.51;101937.88;5025676;28;20450;-74
2021/12/19 05:18:36;;;;;;;8.20;3.00;;;;;;;18.43;51.50;101932.66;5033493;28;20439;-73
2021/12/19 05:21:08;;;;;;;10.07;3.03;;;;;;;18.45;51.52;101944.59;5027750;28;20411;-75
2021/12/19 05:26:12;;;;;;;6.90;3.47;;;;;;;18.44;51.28;101945.78;5031535;28;20437;-75
2021/12/19 05:28:37;;;;;;;8.33;3.47;;;;;;;18.35;51.95;101941.25;5030618;28;20421;-73
2021/12/19 05:31:02;;;;;;;8.20;3.63;;;;;;;18.39;51.59;101951.69;5026589;28;20195;-75
2021/12/19 05:33:28;;;;;;;6.83;2.90;;;;;;;18.46;51.49;101951.97;5031606;28;20212;-73
2021/12/19 05:46:40;;;;;;;5.90;2.63;;;;;;;18.44;51.82;101948.63;5047092;28;20500;-74
2021/12/19 05:49:06;;;;;;;6.93;3.53;;;;;;;18.40;51.96;101932.47;5046832;28;20445;-74
2021/12/19 05:51:33;;;;;;;9.20;3.53;;;;;;;18.40;52.16;101941.91;5037680;28;20709;-74
2021/12/19 05:53:58;;;;;;;9.67;3.10;;;;;;;18.40;51.74;101936.19;5030762;28;20445;-74
2021/12/19 05:56:24;;;;;;;8.13;2.90;;;;;;;18.40;51.90;101941.91;5010255;28;20446;-74
2021/12/19 05:58:49;;;;;;;9.57;3.07;;;;;;;18.43;51.59;101934.66;5043004;28;20184;-75
2021/12/19 06:01:15;;;;;;;7.90;3.97;;;;;;;18.42;51.44;101928.09;5034994;28;20517;-74
2021/12/19 06:03:41;;;;;;;7.57;3.03;;;;;;;18.41;51.44;101928.47;5047771;28;20227;-75
2021/12/19 06:06:07;;;;;;;6.93;3.07;;;;;;;18.44;51.36;101925.75;5014586;28;20568;-74
2021/12/19 06:08:33;;;;;;;5.43;3.00;;;;;;;18.42;51.43;101925.25;5030580;28;20203;-75
2021/12/19 06:10:58;;;;;;;7.53;3.40;;;;;;;18.45;51.39;101918.00;5037439;28;20184;-74
2021/12/19 06:13:24;;;;;;;6.53;2.70;;;;;;;18.44;51.32;101914.31;5063952;28;20195;-74
2021/12/19 06:15:52;;;;;;;5.23;3.10;;;;;;;18.44;51.52;101916.31;5044743;28;20279;-75
2021/12/19 06:18:17;;;;;;;10.30;2.67;;;;;;;18.43;51.35;101912.66;5030057;28;20236;-76
2021/12/19 06:20:43;;;;;;;4.70;2.60;;;;;;;18.45;51.51;101916.00;5047048;28;20904;-75
2021/12/19 06:23:09;;;;;;;7.27;2.87;;;;;;;18.38;51.79;101912.84;5037291;28;20199;-75
2021/12/19 06:25:34;;;;;;;4.00;2.30;;;;;;;18.41;51.52;101912.13;5047626;28;20203;-74
2021/12/19 06:28:00;;;;;;;6.07;3.10;;;;;;;18.38;52.05;101911.97;5047241;28;20171;-74
2021/12/19 06:30:27;;;;;;;7.33;3.20;;;;;;;18.37;51.96;101913.97;5045039;28;20184;-75
2021/12/19 06:32:52;;;;;;;4.67;2.90;;;;;;;18.41;51.47;101902.72;5031424;28;20619;-75
2021/12/19 06:35:18;;;;;;;8.47;3.60;;;;;;;18.37;51.76;101896.81;5030803;28;20425;-74
2021/12/19 06:37:48;;;;;;;7.40;2.60;;;;;;;18.40;51.34;101895.31;5047165;28;20184;-75
2021/12/19 06:40:18;;;;;;;4.93;2.63;;;;;;;18.39;51.56;101891.63;5025179;28;20505;-74
2021/12/19 06:42:43;;;;;;;6.87;2.73;;;;;;;18.42;51.47;101893.78;5028000;28;20494;-75
2021/12/19 06:45:09;;;;;;;5.27;2.60;;;;;;;18.44;51.37;101885.72;5047791;28;20459;-74
2021/12/19 06:47:34;;;;;;;7.67;3.27;;;;;;;18.42;51.36;101881.53;5047834;28;20220;-74
2021/12/19 06:50:01;;;;;;;6.10;2.90;;;;;;;18.38;51.84;101880.53;5047565;28;20593;-75
2021/12/19 06:52:27;;;;;;;9.73;3.73;;;;;;;18.39;51.69;101885.06;5031401;28;20194;-75
2021/12/19 06:54:52;;;;;;;6.00;2.90;;;;;;;18.44;51.75;101885.72;5031539;28;20437;-76
2021/12/19 06:57:17;;;;;;;7.47;3.10;;;;;;;18.37;51.84;101885.38;5027048;28;20230;-74
2021/12/19 06:59:43;;;;;;;6.57;3.20;;;;;;;18.46;51.27;101886.22;5051077;28;20655;-75
2021/12/19 07:02:13;;;;;;;5.20;2.70;;;;;;;18.51;51.50;101885.19;5050866;28;20198;-74
2021/12/19 07:04:40;;;;;;;6.93;2.97;;;;;;;18.51;51.18;101891.75;5051023;28;20203;-74
2021/12/19 07:07:06;;;;;;;5.33;3.10;;;;;;;18.46;51.73;101879.66;5034212;28;20543;-74
2021/12/19 07:09:31;;;;;;;5.03;2.67;;;;;;;18.49;51.33;101878.97;5050353;28;20517;-75
2021/12/19 07:11:57;;;;;;;5.30;2.97;;;;;;;18.46;51.61;101880.50;5051550;28;20249;-74
2021/12/19 07:14:22;;;;;;;11.20;3.60;;;;;;;18.55;51.12;101886.16;5033794;28;20192;-75
2021/12/19 07:16:48;;;;;;;3.50;2.30;;;;;;;18.45;51.36;101875.97;5033945;28;20190;-74
2021/12/19 07:19:13;;;;;;;5.77;2.90;;;;;;;18.42;51.50;101873.75;5048700;28;20249;-74
2021/12/19 07:21:38;;;;;;;5.13;2.60;;;;;;;18.48;51.28;101886.72;5049608;28;20377;-74
2021/12/19 07:24:04;;;;;;;5.80;2.80;;;;;;;18.48;51.50;101883.88;5050030;28;20222;-74
2021/12/19 07:26:29;;;;;;;4.90;3.00;;;;;;;18.43;51.34;101877.47;5032275;28;20187;-74
2021/12/19 07:28:56;;;;;;;6.33;3.30;;;;;;;18.53;50.90;101872.22;5050223;28;20176;-74
2021/12/19 07:31:22;;;;;;;4.67;2.83;;;;;;;18.51;51.16;101874.56;5050413;28;20180;-74
2021/12/19 07:33:47;;;;;;;4.00;2.63;;;;;;;18.50;51.55;101872.91;5049948;28;20933;-75
2021/12/19 07:36:13;;;;;;;5.67;2.93;;;;;;;18.56;51.35;101877.25;5042067;28;20271;-74
2021/12/19 07:38:51;;;;;;;4.83;2.70;;;;;;;18.48;51.21;101865.84;5032517;28;20218;-75
2021/12/19 07:41:17;;;;;;;5.30;2.70;;;;;;;18.46;51.79;101869.06;5032202;28;20203;-74
2021/12/19 07:43:42;;;;;;;4.93;2.50;;;;;;;18.48;51.42;101865.84;5049784;28;20517;-74
2021/12/19 07:46:08;;;;;;;5.80;2.33;;;;;;;18.45;51.42;101863.66;5051514;28;20207;-74
2021/12/19 07:48:33;;;;;;;4.50;2.70;;;;;;;18.43;51.40;101872.63;5048908;28;20642;-74
2021/12/19 07:50:59;;;;;;;6.63;2.23;;;;;;;18.46;51.37;101873.94;5041794;28;20225;-75
2021/12/19 07:53:24;;;;;;;5.40;2.77;;;;;;;18.53;51.37;101865.66;5015486;28;20241;-75
2021/12/19 07:55:49;;;;;;;5.60;2.80;;;;;;;18.48;51.14;101877.28;5039145;28;20188;-74
2021/12/19 07:58:15;;;;;;;3.80;2.73;;;;;;;18.45;51.43;101878.81;5032420;28;20653;-75
2021/12/19 08:00:41;;;;;;;6.33;2.47;;;;;;;18.44;51.26;101882.88;5033009;28;20644;-75
2021/12/19 08:03:06;;;;;;;3.20;2.00;;;;;;;18.45;51.63;101875.97;5033946;28;20603;-74
2021/12/19 08:05:32;;;;;;;4.77;2.40;;;;;;;18.43;51.31;101869.75;5047020;28;20705;-75
2021/12/19 08:08:01;;;;;;;5.20;2.50;;;;;;;18.44;51.47;101877.16;5032327;28;20175;-75
2021/12/19 08:12:59;;;;;;;4.00;2.37;;;;;;;18.43;51.21;101868.91;5033744;28;21170;-75
2021/12/19 08:15:25;;;;;;;4.63;2.33;;;;;;;18.48;51.47;101872.44;5031783;28;20757;-74
2021/12/19 08:17:50;;;;;;;5.10;2.50;;;;;;;18.43;51.31;101858.31;5032036;28;20449;-74
2021/12/19 08:20:17;;;;;;;5.33;2.30;;;;;;;18.45;52.23;101864.53;5015544;28;20194;-74
2021/12/19 08:22:43;;;;;;;6.73;2.53;;;;;;;18.41;51.45;101862.69;5032493;28;20188;-74
2021/12/19 08:25:08;;;;;;;3.87;2.50;;;;;;;18.46;51.51;101868.22;5033249;28;20513;-74
2021/12/19 08:27:34;;;;;;;3.73;2.07;;;;;;;18.46;51.70;101869.06;5024815;28;20445;-74
2021/12/19 08:30:00;;;;;;;4.37;2.27;;;;;;;18.46;51.65;101869.06;5049185;28;20183;-76
2021/12/19 08:32:26;;;;;;;4.80;2.73;;;;;;;18.46;51.33;101869.06;5040149;28;20192;-74
2021/12/19 08:34:51;;;;;;;5.57;2.67;;;;;;;18.48;51.17;101863.84;5022441;28;20796;-75
2021/12/19 08:37:17;;;;;;;5.20;2.50;;;;;;;18.48;51.11;101858.13;5030423;28;20172;-74
2021/12/19 08:39:43;;;;;;;3.70;2.10;;;;;;;18.45;51.29;101864.53;5045533;28;20275;-74
2021/12/19 08:42:09;;;;;;;4.27;2.10;;;;;;;18.49;51.11;101871.22;5021278;28;20176;-74
2021/12/19 08:44:35;;;;;;;4.57;2.50;;;;;;;18.48;51.37;101863.00;5045623;28;20505;-75
2021/12/19 08:47:00;;;;;;;7.40;2.80;;;;;;;18.47;51.95;101867.84;5044748;28;20442;-74
2021/12/19 08:49:26;;;;;;;5.63;2.17;;;;;;;18.46;51.56;101871.91;5039482;28;20225;-74
2021/12/19 08:51:51;;;;;;;4.93;2.80;;;;;;;18.53;51.04;101865.66;5030173;28;20221;-74
2021/12/19 08:54:17;;;;;;;3.00;2.13;;;;;;;18.48;51.67;101863.00;5032044;28;20635;-75
2021/12/19 08:56:42;;;;;;;6.00;2.60;;;;;;;18.50;51.20;101864.31;5047159;28;20179;-75
2021/12/19 08:59:09;;;;;;;7.10;2.37;;;;;;;18.51;51.20;101853.75;5044362;28;20183;-75
2021/12/19 09:01:36;;;;;;;5.40;2.17;;;;;;;18.57;51.26;101856.03;5021658;28;20658;-74
2021/12/19 09:04:02;;;;;;;3.97;2.20;;;;;;;18.52;51.30;101847.66;5030146;28;20466;-74
2021/12/19 09:06:27;;;;;;;5.80;2.60;;;;;;;18.52;51.35;101858.28;5012024;28;20482;-74
2021/12/19 09:08:53;;;;;;;7.20;2.73;;;;;;;18.45;51.10;101858.78;5013296;28;20203;-76
2021/12/19 09:11:18;;;;;;;4.67;2.80;;;;;;;18.48;51.59;101852.41;5031290;28;20203;-75
2021/12/19 09:13:43;;;;;;;3.20;2.07;;;;;;;18.48;51.13;101863.84;5039723;28;20191;-75
2021/12/19 09:16:09;;;;;;;4.60;2.37;;;;;;;18.50;51.35;101863.47;5049109;28;20199;-74
2021/12/19 09:18:35;;;;;;;5.20;2.70;;;;;;;18.52;51.56;101864.00;5046931;28;20651;-74
2021/12/19 09:21:00;;;;;;;5.33;2.30;;;;;;;18.50;51.35;101858.59;5031262;28;20195;-73
2021/12/19 09:23:27;;;;;;;5.00;2.40;;;;;;;18.51;51.10;101851.69;5044706;28;20187;-75
2021/12/19 09:25:52;;;;;;;5.60;2.80;;;;;;;18.48;51.41;101849.53;5027378;28;20222;-74
2021/12/19 09:28:18;;;;;;;3.57;2.17;;;;;;;18.45;51.22;101853.06;5010875;28;20430;-73
2021/12/19 09:30:43;;;;;;;4.40;2.40;;;;;;;18.46;51.22;101849.03;5031927;28;20183;-74
2021/12/19 09:33:09;;;;;;;4.87;2.80;;;;;;;18.47;51.71;101844.16;5020686;28;20602;-74
2021/12/19 09:35:35;;;;;;;4.33;2.20;;;;;;;18.45;51.44;101844.50;5045755;28;20195;-75
2021/12/19 09:38:01;;;;;;;3.73;2.00;;;;;;;18.48;51.77;101852.41;5046786;28;20214;-74
2021/12/19 09:40:33;;;;;;;3.60;2.10;;;;;;;18.46;51.34;101853.94;5044174;28;20556;-76
2021/12/19 09:43:02;;;;;;;5.07;2.57;;;;;;;18.42;51.50;101853.75;5043840;28;20929;-74
2021/12/19 09:45:28;;;;;;;3.40;2.00;;;;;;;18.46;51.53;101843.31;5012080;28;20463;-74
2021/12/19 09:47:53;;;;;;;3.90;2.10;;;;;;;18.46;51.66;101839.63;5012093;28;20449;-75
2021/12/19 09:50:19;;;;;;;4.30;2.37;;;;;;;18.44;51.39;101831.38;5016509;28;20445;-74
2021/12/19 09:52:45;;;;;;;4.30;2.37;;;;;;;18.45;51.59;101835.06;5030775;28;20245;-75
2021/12/19 09:55:11;;;;;;;4.10;1.87;;;;;;;18.40;51.63;101840.97;5048317;28;20175;-74
2021/12/19 09:57:37;;;;;;;4.30;2.20;;;;;;;18.44;51.45;101842.81;5027058;28;20807;-73
2021/12/19 10:00:04;;;;;;;4.23;2.67;;;;;;;18.47;51.34;101838.44;5031578;28;20666;-74
2021/12/19 10:02:29;;;;;;;4.67;1.87;;;;;;;18.44;51.57;101834.25;4995681;28;20470;-73
2021/12/19 10:04:55;;;;;;;3.60;2.13;;;;;;;18.47;51.70;101833.53;5042383;28;20458;-75
2021/12/19 10:07:29;;;;;;;4.87;2.30;;;;;;;18.47;51.50;101839.25;5034306;28;20198;-76
2021/12/19 10:10:12;;;;;;;4.80;1.90;;;;;;;18.47;51.34;101833.53;5028278;28;20195;-74
2021/12/19 10:12:48;;;;;;;3.57;1.80;;;;;;;18.49;51.73;101830.34;5012967;28;20466;-75
2021/12/19 10:15:13;;;;;;;3.90;2.73;;;;;;;18.49;51.60;101819.75;5030248;28;20787;-75
2021/12/19 10:17:39;;;;;;;4.30;2.40;;;;;;;18.54;51.22;101825.28;5048349;28;20437;-76
2021/12/19 10:20:07;;;;;;;4.80;2.23;;;;;;;18.47;51.40;101818.44;5033711;28;20237;-74
2021/12/19 10:22:39;;;;;;;3.93;2.30;;;;;;;18.49;51.34;101819.75;5034998;28;20642;-74
2021/12/19 10:25:30;;;;;;;4.20;2.33;;;;;;;18.49;51.31;101814.03;5035804;28;20453;-74
2021/12/19 10:28:02;;;;;;;4.53;2.10;;;;;;;18.52;51.07;101812.50;5050504;28;20494;-74
2021/12/19 10:30:30;;;;;;;4.07;2.20;;;;;;;18.57;51.20;101810.28;5051513;28;20430;-75
2021/12/19 10:33:15;;;;;;;3.30;2.00;;;;;;;18.53;51.08;101797.88;5031707;28;20449;-74
2021/12/19 10:35:41;;;;;;;4.97;2.37;;;;;;;18.53;51.44;101792.16;5052045;28;20453;-73
2021/12/19 10:38:13;;;;;;;2.87;2.00;;;;;;;18.53;51.42;101789.28;5050042;28;20490;-73
2021/12/19 10:40:39;;;;;;;3.27;1.70;;;;;;;18.50;51.23;101786.25;5059487;28;20434;-76
2021/12/19 10:43:04;;;;;;;3.20;2.00;;;;;;;18.52;51.45;101784.72;5034804;28;20426;-74
2021/12/19 10:45:32;;;;;;;3.77;2.30;;;;;;;18.49;51.26;101768.28;5051713;28;20227;-74
2021/12/19 10:48:17;;;;;;;3.50;2.13;;;;;;;18.52;51.50;101767.56;5048206;28;20184;-75
2021/12/19 10:50:54;;;;;;;3.73;2.20;;;;;;;18.51;51.18;101770.81;5036453;28;20433;-74
2021/12/19 10:53:23;;;;;;;3.23;2.00;;;;;;;18.52;51.19;101761.84;5034298;28;20509;-75
2021/12/19 10:55:50;;;;;;;3.60;2.10;;;;;;;18.48;51.49;101755.16;5035657;28;20430;-74
2021/12/19 10:58:24;;;;;;;3.30;1.93;;;;;;;18.52;51.28;101756.13;5024462;28;20450;-74
2021/12/19 11:01:03;;;;;;;3.43;2.20;;;;;;;18.51;51.56;101759.38;5034831;28;20800;-75
2021/12/19 11:03:44;;;;;;;3.77;1.70;;;;;;;18.49;52.02;101756.00;5052345;28;20866;-75
2021/12/19 11:06:23;;;;;;;4.90;2.20;;;;;;;18.48;51.52;101745.75;5049038;28;20477;-74
2021/12/19 11:08:49;;;;;;;3.70;2.00;;;;;;;18.48;51.42;101738.00;5042336;28;20785;-75
2021/12/19 11:11:33;;;;;;;4.57;1.90;;;;;;;18.50;51.36;101732.78;5052296;28;20449;-74
2021/12/19 11:13:59;;;;;;;3.50;1.73;;;;;;;18.54;51.43;101730.06;5051648;28;20409;-75
2021/12/19 11:16:25;;;;;;;4.53;2.50;;;;;;;18.44;51.61;101722.72;5042996;28;20439;-74
2021/12/19 11:18:50;;;;;;;3.80;2.27;;;;;;;18.48;51.49;101726.56;5048052;28;20183;-74
2021/12/19 11:21:18;;;;;;;3.20;1.87;;;;;;;18.48;51.78;101714.28;5049627;28;20230;-76
2021/12/19 11:23:43;;;;;;;4.83;2.27;;;;;;;18.53;51.18;101708.38;5017729;28;20191;-74
2021/12/19 11:26:08;;;;;;;2.83;1.60;;;;;;;18.49;51.14;101710.22;5032955;28;20461;-75
2021/12/19 11:28:34;;;;;;;2.90;1.80;;;;;;;18.48;51.61;101703.69;5039777;28;20227;-74
2021/12/19 11:31:00;;;;;;;3.63;2.30;;;;;;;18.45;51.54;101694.94;5033059;28;20246;-75
2021/12/19 11:33:44;;;;;;;4.97;2.23;;;;;;;18.43;51.29;101686.75;5031535;28;20257;-74
2021/12/19 11:36:09;;;;;;;3.00;2.10;;;;;;;18.46;51.46;101691.75;5037689;28;20279;-75
2021/12/19 11:38:36;;;;;;;3.20;2.07;;;;;;;18.50;51.47;101687.00;5028913;28;20441;-73
2021/12/19 11:41:10;;;;;;;3.00;1.90;;;;;;;18.47;52.02;101684.84;5034673;28;20657;-75
2021/12/19 11:43:40;;;;;;;3.10;1.90;;;;;;;18.52;51.23;101672.38;5046882;28;20480;-74
2021/12/19 11:46:14;;;;;;;3.47;1.90;;;;;;;18.45;51.81;101675.78;5054752;28;20545;-73
2021/12/19 11:48:40;;;;;;;3.50;1.80;;;;;;;18.44;51.67;101668.41;5034510;28;20406;-76
2021/12/19 11:51:07;;;;;;;4.73;2.30;;;;;;;18.50;51.59;101657.56;5052334;28;20753;-75
2021/12/19 11:53:32;;;;;;;3.33;2.00;;;;;;;18.50;51.97;101646.13;5042124;28;20195;-74
2021/12/19 11:56:09;;;;;;;3.63;2.10;;;;;;;18.51;51.32;101654.38;5050832;28;20410;-75
2021/12/19 11:58:50;;;;;;;3.53;1.83;;;;;;;18.47;51.33;101650.53;5051193;28;20210;-74
2021/12/19 12:01:22;;;;;;;4.10;1.90;;;;;;;18.52;51.38;101641.72;5047937;28;20430;-75
2021/12/19 12:03:52;;;;;;;5.57;2.13;;;;;;;18.47;51.66;101632.53;5043727;28;20442;-73
2021/12/19 12:06:19;;;;;;;3.40;2.10;;;;;;;18.50;51.59;101637.56;5032203;28;20493;-75
2021/12/19 12:09:06;;;;;;;3.40;2.20;;;;;;;18.52;51.44;101636.00;5051158;28;20430;-76
2021/12/19 12:11:32;;;;;;;3.10;2.10;;;;;;;18.51;51.40;101639.25;5042472;28;20466;-75
2021/12/19 12:14:31;;;;;;;3.63;2.00;;;;;;;18.47;51.51;101636.22;5035703;28;20529;-75
2021/12/19 12:17:00;;;;;;;3.13;2.20;;;;;;;18.44;51.61;101634.06;5027970;28;21221;-74
2021/12/19 12:20:01;;;;;;;3.53;2.03;;;;;;;18.50;51.50;101620.38;5032986;28;20469;-74
2021/12/19 12:22:43;;;;;;;3.73;2.10;;;;;;;18.49;51.87;101619.56;5020563;28;20479;-74
2021/12/19 12:25:11;;;;;;;4.40;1.93;;;;;;;18.50;51.45;101615.53;5034202;28;20450;-76
2021/12/19 12:27:56;;;;;;;3.03;1.90;;;;;;;18.52;51.36;101612.31;5029895;28;20449;-74
2021/12/19 12:30:33;;;;;;;5.00;1.80;;;;;;;18.47;51.45;101599.03;5029010;28;20454;-73